Location Greenlaw, NA, UK

ob NPTOHCUK 231930Z AUTO 11000KT CLR CLR 12/09 A2963 RMK SLPNO 

2019.09.23 1930 UTC
Wind from the ESE (112 degrees) at Calm MPH ( KT) gusting to 0 MPH (0 KT)
Visibility    Mile(s)
Weather: CLR
Sky Conditions  clear
Temperature 53.4 F (12 C)
Dew Point 47.4 F (9 C)
Relative Humidity 80%
Pressure   29.634 in. Hg (1004 hPa)
Rain  0.00 in.
Daily Rain  in.

Station Name  New Palace Theatre Organ Heritage Centre
Longitude, Latitude  -2.46, 55.71
Elevation 525
Station URL http://www.nptohc.co.uk/weather
Software Type WeatherDisplay:10.37P